createdAt,value
2019-03-08T06:02:39.980Z,7.00
2019-03-08T06:05:08.764Z,7.10
2019-03-08T06:07:37.343Z,7.10
2019-03-08T06:10:30.690Z,7.10
2019-03-08T06:13:00.060Z,7.20
2019-03-08T06:15:28.301Z,7.10
2019-03-08T06:17:57.082Z,7.10
2019-03-08T06:20:27.279Z,7.10
2019-03-08T06:22:56.331Z,7.10
2019-03-08T06:25:24.642Z,7.10
2019-03-08T06:27:52.852Z,7.10
2019-03-08T06:33:11.839Z,7.10
2019-03-08T06:35:41.702Z,7.20
2019-03-08T06:38:10.049Z,7.20
2019-03-08T06:40:38.320Z,7.20
2019-03-08T06:43:21.631Z,7.20
2019-03-08T06:45:52.125Z,7.20
2019-03-08T06:48:22.236Z,7.20
2019-03-08T06:50:50.599Z,7.30
2019-03-08T06:53:20.062Z,7.40
2019-03-08T06:55:48.758Z,7.50
2019-03-08T06:58:18.991Z,7.60
2019-03-08T07:00:49.056Z,7.60
2019-03-08T07:03:17.474Z,7.70
2019-03-08T07:05:45.867Z,7.70
2019-03-08T07:08:14.268Z,7.70
2019-03-08T07:10:43.267Z,7.70
2019-03-08T07:13:11.717Z,7.70
2019-03-08T07:15:40.101Z,7.60
2019-03-08T07:18:12.597Z,7.70
2019-03-08T07:20:42.700Z,7.70
2019-03-08T07:23:12.791Z,7.70
2019-03-08T07:25:59.423Z,7.80
2019-03-08T07:28:38.727Z,7.90
2019-03-08T07:31:11.178Z,7.90
2019-03-08T07:33:52.698Z,7.90
2019-03-08T07:36:15.755Z,7.90
2019-03-08T07:38:51.443Z,7.90
2019-03-08T07:41:21.418Z,8.00
2019-03-08T07:44:08.730Z,8.10
2019-03-08T07:47:08.253Z,8.10
2019-03-08T07:49:48.513Z,8.10
2019-03-08T07:52:21.251Z,8.20
2019-03-08T07:54:57.305Z,8.20
2019-03-08T07:57:36.777Z,8.20
2019-03-08T08:00:30.407Z,8.20
2019-03-08T08:03:03.639Z,8.20
2019-03-08T08:05:41.160Z,8.20
2019-03-08T08:08:26.086Z,8.20
2019-03-08T08:11:11.490Z,8.30
2019-03-08T08:13:56.621Z,8.30
2019-03-08T08:16:26.646Z,8.40
2019-03-08T08:19:00.393Z,8.50
2019-03-08T08:21:35.550Z,8.40
2019-03-08T08:24:11.416Z,8.30
2019-03-08T08:26:57.766Z,8.40
2019-03-08T08:29:35.197Z,8.50
2019-03-08T08:32:05.658Z,8.60
2019-03-08T08:34:39.247Z,8.60
2019-03-08T08:37:17.224Z,8.70
2019-03-08T08:39:50.264Z,8.70
2019-03-08T08:42:20.951Z,8.70
2019-03-08T08:44:53.010Z,8.80
2019-03-08T08:47:22.858Z,8.80
2019-03-08T08:50:05.568Z,8.80
2019-03-08T08:52:53.583Z,8.80
2019-03-08T08:55:24.513Z,8.80
2019-03-08T08:58:03.319Z,8.80
2019-03-08T09:00:42.054Z,8.80
2019-03-08T09:03:12.988Z,8.70
2019-03-08T09:05:43.028Z,8.70
2019-03-08T09:08:15.598Z,8.70
2019-03-08T09:10:54.157Z,8.70
2019-03-08T09:13:24.556Z,8.70
2019-03-08T09:16:02.214Z,8.70
2019-03-08T09:18:34.810Z,8.80
2019-03-08T09:21:06.502Z,8.80
2019-03-08T09:23:42.668Z,8.70
2019-03-08T09:26:15.854Z,8.50
2019-03-08T09:28:48.923Z,8.40
2019-03-08T09:31:21.994Z,8.40
2019-03-08T09:34:09.104Z,8.40
2019-03-08T09:36:42.386Z,8.50
2019-03-08T09:39:17.553Z,8.70
2019-03-08T09:41:54.579Z,8.80
2019-03-08T09:44:37.783Z,8.80
2019-03-08T09:47:17.394Z,9.10
2019-03-08T09:49:50.186Z,9.30
2019-03-08T09:52:22.123Z,9.40
2019-03-08T09:55:02.395Z,9.50
2019-03-08T09:57:41.748Z,9.40
2019-03-08T10:00:28.987Z,9.20
2019-03-08T10:03:05.862Z,9.00
2019-03-08T10:05:56.687Z,8.90
2019-03-08T10:08:29.961Z,9.00
2019-03-08T10:11:22.648Z,9.00
2019-03-08T10:14:07.220Z,9.00
2019-03-08T10:16:55.484Z,9.00
2019-03-08T10:19:38.649Z,9.00
2019-03-08T10:22:13.229Z,9.10
2019-03-08T10:24:58.394Z,9.00
2019-03-08T10:27:38.064Z,8.80
2019-03-08T10:30:09.571Z,8.60
2019-03-08T10:32:50.767Z,8.80
2019-03-08T10:35:32.585Z,8.90
2019-03-08T10:38:22.096Z,9.00
2019-03-08T10:40:51.832Z,9.30
2019-03-08T10:43:22.373Z,9.50
2019-03-08T10:46:25.262Z,9.50
2019-03-08T10:49:12.891Z,9.90
2019-03-08T10:52:00.222Z,10.30
2019-03-08T10:54:51.156Z,9.80
2019-03-08T10:57:46.455Z,9.40
2019-03-08T11:00:37.065Z,9.60
2019-03-08T11:06:27.213Z,10.20
2019-03-08T12:18:28.166Z,12.10
2019-03-08T12:33:24.854Z,11.00
2019-03-08T12:36:33.070Z,10.50
2019-03-08T12:39:13.274Z,10.60
2019-03-08T12:41:55.934Z,9.90
2019-03-08T12:44:30.415Z,9.70
2019-03-08T12:47:04.427Z,9.70
2019-03-08T12:49:42.299Z,9.90
2019-03-08T12:52:20.934Z,9.70
2019-03-08T12:55:08.274Z,9.60
2019-03-08T12:57:47.399Z,9.50
2019-03-08T13:06:36.772Z,9.50
2019-03-08T13:09:17.258Z,9.60
2019-03-08T13:20:28.850Z,9.60
2019-03-08T13:25:56.649Z,9.70
2019-03-08T13:28:35.719Z,9.60
2019-03-08T13:31:13.214Z,9.50
2019-03-08T13:34:07.399Z,9.60
2019-03-08T13:42:17.349Z,10.10
2019-03-08T13:47:47.894Z,10.40
2019-03-08T13:50:34.233Z,10.20
2019-03-08T13:53:09.799Z,9.90
2019-03-08T13:55:46.923Z,9.60
2019-03-08T13:58:18.422Z,9.80
2019-03-08T14:00:54.488Z,9.80
2019-03-08T14:03:30.252Z,9.70
2019-03-08T14:05:59.806Z,9.30
2019-03-08T14:11:40.811Z,9.10
2019-03-08T14:14:27.164Z,9.30
2019-03-08T14:16:59.681Z,9.60
2019-03-08T14:19:38.252Z,9.30
2019-03-08T14:22:08.727Z,9.20
2019-03-08T14:24:43.333Z,9.10
2019-03-08T14:27:18.252Z,8.90
2019-03-08T14:29:55.214Z,9.00
2019-03-08T14:32:26.967Z,9.00
2019-03-08T14:34:58.172Z,9.00
2019-03-08T14:37:40.190Z,9.00
2019-03-08T14:40:21.997Z,9.20
2019-03-08T14:42:53.025Z,9.00
2019-03-08T14:45:25.334Z,8.90
2019-03-08T14:47:56.743Z,8.90
2019-03-08T14:53:28.511Z,8.90
2019-03-08T14:56:00.112Z,8.80
2019-03-08T14:58:36.402Z,8.70
2019-03-08T15:01:06.335Z,8.80
2019-03-08T15:03:43.889Z,9.10
2019-03-08T15:06:16.555Z,9.20
2019-03-08T15:08:47.249Z,9.30
2019-03-08T15:11:23.527Z,9.30
2019-03-08T15:14:01.537Z,9.10
2019-03-08T15:16:31.607Z,9.20
2019-03-08T15:19:03.772Z,9.20
2019-03-08T15:21:37.876Z,9.00
2019-03-08T15:24:09.293Z,8.90
2019-03-08T15:26:45.469Z,9.10
2019-03-08T15:29:19.766Z,9.60
2019-03-08T15:31:52.056Z,9.60
2019-03-08T15:34:22.491Z,9.60
2019-03-08T15:36:53.316Z,9.50
2019-03-08T15:39:25.023Z,9.20
2019-03-08T15:41:58.448Z,9.10
2019-03-08T15:44:28.195Z,9.30
2019-03-08T15:46:59.173Z,9.20
2019-03-08T15:49:32.926Z,9.20
2019-03-08T15:52:04.663Z,9.20
2019-03-08T15:54:33.587Z,9.30
2019-03-08T15:57:01.963Z,9.20
2019-03-08T15:59:33.859Z,9.30
2019-03-08T16:02:06.314Z,9.10
2019-03-08T16:04:37.658Z,9.20
2019-03-08T16:07:08.408Z,9.10
2019-03-08T16:09:39.520Z,8.90
2019-03-08T16:12:08.767Z,9.00
2019-03-08T16:14:44.148Z,8.90
2019-03-08T16:17:16.008Z,8.80
2019-03-08T16:19:48.891Z,8.70
2019-03-08T16:22:18.460Z,8.70
2019-03-08T16:24:48.752Z,8.50
2019-03-08T16:27:18.531Z,8.50
2019-03-08T16:29:47.031Z,8.30
2019-03-08T16:32:17.908Z,8.30
2019-03-08T16:34:50.818Z,8.20
2019-03-08T16:37:21.239Z,8.10
2019-03-08T16:39:55.172Z,8.00
2019-03-08T16:42:26.571Z,7.80
2019-03-08T16:45:12.571Z,7.80
2019-03-08T16:47:59.062Z,7.80
2019-03-08T16:50:29.139Z,7.60
2019-03-08T16:53:06.889Z,7.50
2019-03-08T16:55:36.297Z,7.40
2019-03-08T16:58:23.295Z,7.40
2019-03-08T17:01:02.644Z,7.30
2019-03-08T17:03:34.165Z,7.30
2019-03-08T17:06:05.937Z,7.20
2019-03-08T17:08:45.672Z,7.30
2019-03-08T17:11:21.758Z,7.30
2019-03-08T17:13:54.915Z,7.20
2019-03-08T17:16:41.518Z,7.10
2019-03-08T17:19:25.006Z,7.10
2019-03-08T17:21:55.306Z,7.00
2019-03-08T17:24:32.271Z,6.90
2019-03-08T17:27:20.223Z,6.90
2019-03-08T17:30:17.824Z,6.80
2019-03-08T17:33:07.664Z,6.80
2019-03-08T17:35:43.386Z,6.70
2019-03-08T17:38:16.830Z,6.60
2019-03-08T17:41:00.244Z,6.40
2019-03-08T17:43:34.119Z,6.40
2019-03-08T17:46:19.625Z,6.40
2019-03-08T17:48:53.322Z,6.30
2019-03-08T17:51:26.201Z,6.30
2019-03-08T17:54:08.595Z,6.20
2019-03-08T17:56:50.883Z,6.10
2019-03-08T17:59:29.388Z,6.10
2019-03-08T18:02:17.619Z,6.10
2019-03-08T18:04:48.253Z,6.20
2019-03-08T18:07:21.383Z,6.10
2019-03-08T18:10:09.459Z,6.00
2019-03-08T18:12:48.463Z,6.00
2019-03-08T18:15:35.684Z,6.00
2019-03-08T18:18:18.899Z,5.90
2019-03-08T18:23:46.809Z,5.80
2019-03-08T18:26:22.827Z,5.70
2019-03-08T18:31:28.107Z,5.70
2019-03-08T18:34:07.734Z,5.70
2019-03-08T18:36:55.835Z,5.60
2019-03-08T18:39:25.944Z,5.60
2019-03-08T18:41:55.966Z,5.50
2019-03-08T18:44:40.367Z,5.50
